Terminal Aerodrome Forecast
Issued by NWS

Home | Current Version | Previous Version | Text Only | Print | Product List | Glossary Off
Versions: 1 2 3 4 5 6 7 8 9 10 11 12 13 14 15 16 17 18 19 20 21

000
FTUS44 KLZK 221730
TAFLIT
TAF
KLIT 221730Z 2218/2318 12009KT P6SM VCSH SCT012 OVC025
      TEMPO 2218/2220 4SM -RA BR OVC012
     FM222000 12009G16KT P6SM -SHRA OVC020
     FM230200 12008KT 5SM -SHRA BR SCT007 OVC015
     FM231200 17008KT 4SM -RA BR OVC010=

USA.gov is the U.S. government's official web portal to all federal, state and local government web resources and services.